createdAt,value
2022-12-11T00:00:55.255Z,100494.41
2022-12-11T00:03:26.467Z,100498.78
2022-12-11T00:05:57.726Z,100493.59
2022-12-11T00:08:28.933Z,100503.22
2022-12-11T00:11:00.163Z,100503.28
2022-12-11T00:13:31.420Z,100500.69
2022-12-11T00:16:02.625Z,100494.63
2022-12-11T00:18:33.927Z,100497.22
2022-12-11T00:21:06.197Z,100498.13
2022-12-11T00:23:37.938Z,100490.28
2022-12-11T00:26:10.248Z,100487.63
2022-12-11T00:28:42.218Z,100491.09
2022-12-11T00:31:16.298Z,100488.50
2022-12-11T00:33:49.114Z,100480.56
2022-12-11T00:36:21.823Z,100487.50
2022-12-11T00:38:53.771Z,100484.84
2022-12-11T00:41:25.045Z,100483.13
2022-12-11T00:43:56.276Z,100484.00
2022-12-11T00:46:27.520Z,100484.88
2022-12-11T00:48:58.843Z,100484.84
2022-12-11T00:51:30.162Z,100494.41
2022-12-11T00:54:01.426Z,100499.63
2022-12-11T00:56:32.726Z,100499.66
2022-12-11T00:59:03.919Z,100497.03
2022-12-11T01:01:35.259Z,100489.97
2022-12-11T01:04:06.492Z,100497.81
2022-12-11T01:06:38.933Z,100492.63
2022-12-11T01:09:28.703Z,100490.88
2022-12-11T01:11:59.899Z,100492.66
2022-12-11T01:14:31.111Z,100498.78
2022-12-11T01:17:02.382Z,100500.53
2022-12-11T01:19:33.640Z,100497.88
2022-12-11T01:22:04.844Z,100503.09
2022-12-11T01:24:36.047Z,100495.22
2022-12-11T01:27:07.317Z,100488.28
2022-12-11T01:29:38.526Z,100495.22
2022-12-11T01:32:09.719Z,100492.59
2022-12-11T01:34:40.940Z,100499.50
2022-12-11T01:37:12.161Z,100496.03
2022-12-11T01:39:43.390Z,100499.44
2022-12-11T01:42:18.214Z,100495.03
2022-12-11T01:44:49.379Z,100501.97
2022-12-11T01:47:20.589Z,100508.00
2022-12-11T01:49:51.781Z,100508.03
2022-12-11T01:52:22.992Z,100507.19
2022-12-11T01:54:54.204Z,100504.63
2022-12-11T01:57:25.415Z,100503.75
2022-12-11T01:59:56.776Z,100502.91
2022-12-11T02:02:29.392Z,100504.66
2022-12-11T02:05:03.811Z,100507.28
2022-12-11T02:07:38.533Z,100510.75
2022-12-11T02:10:12.028Z,100497.72
2022-12-11T02:12:57.480Z,100500.31
2022-12-11T02:15:47.004Z,100501.22
2022-12-11T02:18:33.572Z,100499.41
2022-12-11T02:21:20.630Z,100497.69
2022-12-11T02:24:18.933Z,100497.69
2022-12-11T02:26:58.976Z,100495.09
2022-12-11T02:29:38.272Z,100499.38
2022-12-11T02:32:14.234Z,100492.41
2022-12-11T02:35:00.106Z,100473.09
2022-12-11T02:37:32.819Z,100494.94
2022-12-11T02:40:06.376Z,100489.66
2022-12-11T02:42:39.514Z,100489.66
2022-12-11T02:45:12.207Z,100480.16
2022-12-11T02:47:46.018Z,100483.59
2022-12-11T02:50:19.907Z,100475.75
2022-12-11T02:52:53.652Z,100481.84
2022-12-11T02:55:25.953Z,100486.25
2022-12-11T02:58:03.740Z,100480.19
2022-12-11T03:00:35.026Z,100481.06
2022-12-11T03:03:06.386Z,100483.66
2022-12-11T03:09:05.306Z,100482.81
2022-12-11T03:11:36.568Z,100473.22
2022-12-11T03:14:08.168Z,100473.22
2022-12-11T03:16:42.902Z,100474.94
2022-12-11T03:19:27.777Z,100477.47
2022-12-11T03:22:03.381Z,100480.03
2022-12-11T03:24:34.630Z,100477.25
2022-12-11T03:27:29.025Z,100485.91
2022-12-11T03:30:02.415Z,100486.78
2022-12-11T03:32:42.133Z,100489.38
2022-12-11T03:35:17.358Z,100487.59
2022-12-11T03:37:51.007Z,100486.75
2022-12-11T03:40:23.730Z,100490.19
2022-12-11T03:42:56.252Z,100487.56
2022-12-11T03:45:29.464Z,100494.53
2022-12-11T03:48:01.688Z,100486.75
2022-12-11T03:50:34.487Z,100485.91
2022-12-11T03:53:06.143Z,100488.50
2022-12-11T03:55:38.185Z,100483.22
2022-12-11T03:58:09.401Z,100473.69
2022-12-11T04:00:40.598Z,100472.78
2022-12-11T04:03:15.018Z,100478.88
2022-12-11T04:05:47.902Z,100467.56
2022-12-11T04:08:20.785Z,100472.78
2022-12-11T04:11:12.129Z,100473.66
2022-12-11T04:13:43.434Z,100467.53
2022-12-11T04:16:14.670Z,100467.50
2022-12-11T04:19:04.571Z,100478.75
2022-12-11T04:21:54.603Z,100479.53
2022-12-11T04:24:25.895Z,100483.00
2022-12-11T04:26:57.119Z,100479.47
2022-12-11T04:29:28.362Z,100475.09
2022-12-11T04:31:59.588Z,100479.47
2022-12-11T04:34:30.823Z,100476.88
2022-12-11T04:37:02.087Z,100481.19
2022-12-11T04:39:33.519Z,100481.16
2022-12-11T04:42:04.749Z,100479.38
2022-12-11T04:44:36.034Z,100474.19
2022-12-11T04:47:07.229Z,100481.16
2022-12-11T04:49:38.449Z,100473.28
2022-12-11T04:52:09.712Z,100475.78
2022-12-11T04:54:40.976Z,100472.22
2022-12-11T04:57:12.186Z,100472.16
2022-12-11T04:59:43.438Z,100480.84
2022-12-11T05:02:15.612Z,100474.66
2022-12-11T05:04:46.819Z,100472.84
2022-12-11T05:07:18.227Z,100474.44
2022-12-11T05:09:50.445Z,100468.22
2022-12-11T05:12:21.796Z,100466.41
2022-12-11T05:14:53.392Z,100469.84
2022-12-11T05:17:24.652Z,100470.69
2022-12-11T05:19:55.850Z,100468.91
2022-12-11T05:22:27.047Z,100470.56
2022-12-11T05:24:58.272Z,100473.94
2022-12-11T05:27:29.657Z,100468.66
2022-12-11T05:30:00.880Z,100459.88
2022-12-11T05:32:32.079Z,100472.81
2022-12-11T05:35:03.720Z,100470.13
2022-12-11T05:37:34.948Z,100464.88
2022-12-11T05:40:06.449Z,100457.03
2022-12-11T05:42:37.683Z,100464.81
2022-12-11T05:45:09.273Z,100459.56
2022-12-11T05:47:40.654Z,100463.88
2022-12-11T05:50:11.910Z,100464.81
2022-12-11T05:52:43.108Z,100470.94
2022-12-11T05:55:14.351Z,100468.28
2022-12-11T05:57:45.733Z,100470.03
2022-12-11T06:00:16.956Z,100460.34
2022-12-11T06:02:48.373Z,100470.09
2022-12-11T06:05:19.724Z,100467.44
2022-12-11T06:07:50.951Z,100476.09
2022-12-11T06:10:22.194Z,100476.09
2022-12-11T06:12:53.391Z,100474.34
2022-12-11T06:15:24.772Z,100472.56
2022-12-11T06:17:55.977Z,100476.06
2022-12-11T06:20:27.348Z,100479.53
2022-12-11T06:22:58.851Z,100469.97
2022-12-11T06:25:30.106Z,100473.41
2022-12-11T06:28:01.366Z,100463.84
2022-12-11T06:30:38.262Z,100469.00
2022-12-11T06:33:10.795Z,100462.84
2022-12-11T06:35:42.655Z,100465.38
2022-12-11T06:38:13.930Z,100460.09
2022-12-11T06:40:45.426Z,100457.50
2022-12-11T06:43:16.620Z,100433.72
2022-12-11T06:45:48.224Z,100446.88
2022-12-11T06:48:20.082Z,100452.00
2022-12-11T06:50:51.286Z,100455.41
2022-12-11T06:53:22.556Z,100460.50
2022-12-11T06:55:53.764Z,100463.88
2022-12-11T06:58:25.047Z,100463.81
2022-12-11T07:00:56.331Z,100476.75
2022-12-11T07:03:27.934Z,100474.91
2022-12-11T07:06:02.553Z,100470.41
2022-12-11T07:08:33.814Z,100468.44
2022-12-11T07:11:06.497Z,100476.81
2022-12-11T07:13:37.759Z,100486.81
2022-12-11T07:16:10.942Z,100486.47
2022-12-11T07:18:49.780Z,100491.34
2022-12-11T07:21:22.078Z,100497.00
2022-12-11T07:23:53.311Z,100494.13
2022-12-11T07:26:24.833Z,100492.97
2022-12-11T07:28:59.674Z,100491.75
2022-12-11T07:31:31.045Z,100491.47
2022-12-11T07:34:04.971Z,100495.56
2022-12-11T07:36:36.232Z,100499.63
2022-12-11T07:39:08.922Z,100498.53
2022-12-11T07:41:40.263Z,100498.28
2022-12-11T07:44:11.612Z,100500.69
2022-12-11T07:46:42.859Z,100499.66
2022-12-11T07:49:14.063Z,100502.09
2022-12-11T07:51:45.327Z,100499.34
2022-12-11T07:54:16.989Z,100505.19
2022-12-11T07:56:53.197Z,100500.00
2022-12-11T07:59:25.179Z,100500.66
2022-12-11T08:01:56.456Z,100505.84
2022-12-11T08:04:27.681Z,100509.22
2022-12-11T08:06:59.155Z,100498.72
2022-12-11T08:09:30.357Z,100506.41
2022-12-11T08:12:01.655Z,100509.81
2022-12-11T08:14:32.880Z,100505.41
2022-12-11T08:17:04.148Z,100504.47
2022-12-11T08:19:35.401Z,100506.19
2022-12-11T08:22:06.700Z,100501.72
2022-12-11T08:28:05.251Z,100505.97
2022-12-11T08:30:39.399Z,100500.78
2022-12-11T08:33:10.738Z,100501.69
2022-12-11T08:35:43.911Z,100505.09
2022-12-11T08:38:19.604Z,100500.78
2022-12-11T08:40:53.561Z,100504.31
2022-12-11T08:43:25.104Z,100506.97
2022-12-11T08:45:56.344Z,100506.16
2022-12-11T08:48:27.578Z,100496.69
2022-12-11T08:50:59.710Z,100502.00
2022-12-11T08:53:31.580Z,100502.88
2022-12-11T08:56:03.854Z,100505.53
2022-12-11T08:58:35.727Z,100497.78
2022-12-11T09:01:08.813Z,100498.72
2022-12-11T09:03:40.420Z,100502.31
2022-12-11T09:06:13.815Z,100495.41
2022-12-11T09:08:50.391Z,100498.94
2022-12-11T09:11:25.661Z,100494.69
2022-12-11T09:13:59.843Z,100490.44
2022-12-11T09:16:33.963Z,100494.84
2022-12-11T09:19:06.365Z,100488.94
2022-12-11T09:21:37.836Z,100493.38
2022-12-11T09:33:20.556Z,100435.06
2022-12-11T09:36:01.371Z,100435.28
2022-12-11T09:50:34.152Z,100457.97
2022-12-11T09:53:33.903Z,100463.72
2022-12-11T09:56:36.061Z,100454.22
2022-12-11T09:59:35.956Z,100436.88
2022-12-11T10:02:25.174Z,100453.78
2022-12-11T10:05:27.497Z,100448.81
2022-12-11T10:08:17.570Z,100442.22
2022-12-11T10:11:01.958Z,100444.47
2022-12-11T10:13:53.406Z,100445.97
2022-12-11T10:17:00.696Z,100437.88
2022-12-11T10:19:33.059Z,100439.38
2022-12-11T10:22:04.555Z,100440.84
2022-12-11T10:27:40.947Z,100426.69
2022-12-11T10:30:18.121Z,100426.66
2022-12-11T10:33:20.890Z,100401.16
2022-12-11T10:35:58.308Z,100412.44
2022-12-11T10:38:38.193Z,100425.59
2022-12-11T10:41:17.476Z,100422.94
2022-12-11T10:43:51.355Z,100425.56
2022-12-11T10:46:25.825Z,100420.38
2022-12-11T10:48:59.659Z,100411.72
2022-12-11T10:51:30.882Z,100413.47
2022-12-11T10:54:24.140Z,100422.16
2022-12-11T10:56:56.236Z,100420.44
2022-12-11T10:59:38.065Z,100426.50
2022-12-11T11:02:23.654Z,100423.06
2022-12-11T11:04:57.008Z,100417.84
2022-12-11T11:07:30.684Z,100409.97
2022-12-11T11:10:11.027Z,100415.31
2022-12-11T11:12:45.707Z,100414.44
2022-12-11T11:15:26.978Z,100395.03
2022-12-11T11:18:12.546Z,100412.75
2022-12-11T11:20:47.809Z,100416.25
2022-12-11T11:23:21.605Z,100414.53
2022-12-11T11:26:07.384Z,100402.34
2022-12-11T11:28:48.267Z,100397.22
2022-12-11T11:31:21.728Z,100384.03
2022-12-11T11:34:03.880Z,100378.97
2022-12-11T11:36:37.141Z,100393.06
2022-12-11T11:39:27.271Z,100384.41
2022-12-11T11:42:06.486Z,100377.56
2022-12-11T11:44:42.645Z,100376.72
2022-12-11T11:47:27.841Z,100375.91
2022-12-11T11:50:17.738Z,100374.22
2022-12-11T11:52:57.036Z,100375.03
2022-12-11T11:55:39.661Z,100378.50
2022-12-11T11:58:22.895Z,100367.13
2022-12-11T12:00:55.119Z,100359.19
2022-12-11T12:03:29.707Z,100375.94
2022-12-11T12:06:28.129Z,100381.22
2022-12-11T12:09:17.490Z,100377.78
2022-12-11T12:11:52.149Z,100384.72
2022-12-11T12:14:52.136Z,100377.81
2022-12-11T12:17:55.830Z,100386.56
2022-12-11T12:20:39.687Z,100376.13
2022-12-11T12:23:36.328Z,100356.81
2022-12-11T12:26:14.250Z,100368.28
2022-12-11T12:29:07.722Z,100361.31
2022-12-11T12:32:18.023Z,100364.78
2022-12-11T12:35:04.546Z,100368.25
2022-12-11T12:37:46.786Z,100363.91
2022-12-11T12:40:34.680Z,100363.91
2022-12-11T12:43:26.241Z,100341.00
2022-12-11T12:46:03.291Z,100363.97
2022-12-11T12:48:34.910Z,100377.94
2022-12-11T12:51:06.767Z,100357.84
2022-12-11T12:53:38.458Z,100355.25
2022-12-11T12:56:12.036Z,100376.34
2022-12-11T12:58:45.341Z,100350.03
2022-12-11T13:01:22.607Z,100375.59
2022-12-11T13:04:02.084Z,100362.38
2022-12-11T13:06:37.872Z,100373.78
2022-12-11T13:09:14.582Z,100367.72
2022-12-11T13:11:50.001Z,100365.91
2022-12-11T13:14:27.009Z,100371.13
2022-12-11T13:17:06.532Z,100345.63
2022-12-11T13:19:42.541Z,100365.88
2022-12-11T13:22:16.963Z,100367.63
2022-12-11T13:25:16.805Z,100365.06
2022-12-11T13:27:49.225Z,100372.88
2022-12-11T13:30:24.979Z,100385.00
2022-12-11T13:33:06.489Z,100380.66
2022-12-11T13:35:39.003Z,100349.75
2022-12-11T13:38:20.281Z,100382.31
2022-12-11T13:40:55.527Z,100388.31
2022-12-11T13:43:29.508Z,100382.13
2022-12-11T13:46:03.382Z,100386.47
2022-12-11T13:48:38.852Z,100386.41
2022-12-11T13:51:17.328Z,100382.81
2022-12-11T13:53:49.543Z,100376.38
2022-12-11T13:56:22.171Z,100391.38
2022-12-11T13:58:53.943Z,100384.13
2022-12-11T14:01:30.453Z,100394.66
2022-12-11T14:04:08.866Z,100401.63
2022-12-11T14:06:40.339Z,100376.13
2022-12-11T14:09:18.535Z,100398.88
2022-12-11T14:11:56.468Z,100379.38
2022-12-11T14:14:53.409Z,100334.50
2022-12-11T14:17:28.123Z,100404.91
2022-12-11T14:20:03.036Z,100402.28
2022-12-11T14:22:34.433Z,100404.75
2022-12-11T14:25:20.256Z,100373.91
2022-12-11T14:27:54.589Z,100409.78
2022-12-11T14:30:32.325Z,100407.91
2022-12-11T14:33:05.286Z,100417.22
2022-12-11T14:35:40.276Z,100402.88
2022-12-11T14:38:26.833Z,100398.31
2022-12-11T14:41:06.666Z,100409.69
2022-12-11T14:43:45.242Z,100394.66
2022-12-11T14:46:20.460Z,100401.44
2022-12-11T14:49:01.655Z,100412.75
2022-12-11T14:51:38.563Z,100402.84
2022-12-11T14:54:37.415Z,100414.91
2022-12-11T14:57:18.200Z,100414.66
2022-12-11T14:59:53.043Z,100410.94
2022-12-11T15:02:26.882Z,100424.59
2022-12-11T15:05:20.081Z,100416.50
2022-12-11T15:08:26.602Z,100421.44
2022-12-11T15:11:13.306Z,100412.28
2022-12-11T15:13:55.518Z,100402.19
2022-12-11T15:16:31.624Z,100421.38
2022-12-11T15:19:03.062Z,100420.34
2022-12-11T15:21:36.185Z,100403.50
2022-12-11T15:24:23.140Z,100414.06
2022-12-11T15:26:57.455Z,100413.97
2022-12-11T15:29:36.203Z,100393.41
2022-12-11T15:32:14.041Z,100403.09
2022-12-11T15:34:49.934Z,100404.59
2022-12-11T15:37:25.631Z,100411.41
2022-12-11T15:39:59.183Z,100406.88
2022-12-11T15:42:42.763Z,100352.03
2022-12-11T15:45:25.983Z,100409.13
2022-12-11T15:47:59.349Z,100360.53
2022-12-11T15:50:30.636Z,100413.13
2022-12-11T15:53:02.022Z,100406.09
2022-12-11T15:55:34.942Z,100405.94
2022-12-11T15:58:12.680Z,100410.16
2022-12-11T16:00:44.539Z,100405.63
2022-12-11T16:03:18.106Z,100406.50
2022-12-11T16:05:51.788Z,100410.88
2022-12-11T16:08:23.980Z,100412.56
2022-12-11T16:10:55.667Z,100407.28
2022-12-11T16:13:26.952Z,100410.75
2022-12-11T16:15:58.373Z,100407.28
2022-12-11T16:18:29.690Z,100410.91
2022-12-11T16:21:06.084Z,100406.66
2022-12-11T16:23:37.280Z,100414.66
2022-12-11T16:26:09.605Z,100419.06
2022-12-11T16:28:41.757Z,100418.50
2022-12-11T16:31:14.780Z,100411.09
2022-12-11T16:33:46.259Z,100400.00
2022-12-11T16:36:19.627Z,100413.53
2022-12-11T16:38:53.778Z,100413.88
2022-12-11T16:41:25.747Z,100408.94
2022-12-11T16:43:57.204Z,100412.66
2022-12-11T16:46:28.626Z,100401.69
2022-12-11T16:49:00.089Z,100418.44
2022-12-11T16:51:31.373Z,100418.72
2022-12-11T16:54:03.391Z,100414.66
2022-12-11T16:56:36.775Z,100400.75
2022-12-11T16:59:08.829Z,100422.03
2022-12-11T17:01:40.734Z,100426.53
2022-12-11T17:04:12.152Z,100418.97
2022-12-11T17:06:43.466Z,100417.38
2022-12-11T17:09:14.821Z,100411.47
2022-12-11T17:11:46.153Z,100422.00
2022-12-11T17:14:17.501Z,100416.94
2022-12-11T17:16:48.856Z,100397.81
2022-12-11T17:19:23.010Z,100410.25
2022-12-11T17:21:55.480Z,100395.50
2022-12-11T17:24:27.115Z,100406.13
2022-12-11T17:26:59.575Z,100416.56
2022-12-11T17:29:31.574Z,100417.53
2022-12-11T17:32:03.188Z,100421.84
2022-12-11T17:34:38.100Z,100426.06
2022-12-11T17:37:10.032Z,100417.25
2022-12-11T17:39:41.325Z,100421.78
2022-12-11T17:42:12.941Z,100420.97
2022-12-11T17:44:45.490Z,100411.44
2022-12-11T17:47:16.876Z,100397.28
2022-12-11T17:49:48.526Z,100420.88
2022-12-11T17:52:19.844Z,100409.50
2022-12-11T17:54:52.635Z,100420.75
2022-12-11T17:57:23.972Z,100415.53
2022-12-11T17:59:56.000Z,100414.56
2022-12-11T18:02:35.947Z,100379.34
2022-12-11T18:05:07.527Z,100418.56
2022-12-11T18:07:38.988Z,100428.97
2022-12-11T18:10:10.331Z,100424.53
2022-12-11T18:12:41.629Z,100428.78
2022-12-11T18:15:13.890Z,100420.94
2022-12-11T18:17:46.063Z,100402.31
2022-12-11T18:20:17.525Z,100430.41
2022-12-11T18:22:49.012Z,100432.28
2022-12-11T18:25:20.532Z,100439.31
2022-12-11T18:27:52.241Z,100435.97
2022-12-11T18:30:24.967Z,100397.66
2022-12-11T18:32:56.298Z,100422.47
2022-12-11T18:35:29.675Z,100426.16
2022-12-11T18:38:01.017Z,100425.53
2022-12-11T18:40:32.425Z,100420.47
2022-12-11T18:43:03.846Z,100422.41
2022-12-11T18:45:35.171Z,100389.00
2022-12-11T18:48:06.766Z,100430.47
2022-12-11T18:50:38.231Z,100419.41
2022-12-11T18:53:09.892Z,100416.94
2022-12-11T18:55:43.458Z,100385.38
2022-12-11T18:58:20.468Z,100414.44
2022-12-11T19:00:52.330Z,100411.81
2022-12-11T19:03:23.644Z,100399.41
2022-12-11T19:05:54.960Z,100425.69
2022-12-11T19:08:26.390Z,100404.63
2022-12-11T19:10:57.689Z,100421.56
2022-12-11T19:13:29.027Z,100425.88
2022-12-11T19:16:00.437Z,100422.53
2022-12-11T19:18:31.795Z,100427.78
2022-12-11T19:21:09.366Z,100419.13
2022-12-11T19:23:41.627Z,100424.38
2022-12-11T19:26:15.568Z,100420.97
2022-12-11T19:28:48.421Z,100417.53
2022-12-11T19:31:22.144Z,100421.06
2022-12-11T19:33:54.172Z,100424.56
2022-12-11T19:36:27.358Z,100426.38
2022-12-11T19:39:01.925Z,100442.84
2022-12-11T19:41:33.737Z,100441.09
2022-12-11T19:44:05.037Z,100446.34
2022-12-11T19:46:36.414Z,100440.28
2022-12-11T19:49:07.779Z,100424.56
2022-12-11T19:51:40.866Z,100434.38
2022-12-11T19:54:14.307Z,100408.91
2022-12-11T19:56:45.660Z,100439.59
2022-12-11T19:59:17.765Z,100428.88
2022-12-11T20:01:49.392Z,100449.19
2022-12-11T20:04:21.022Z,100437.00
2022-12-11T20:06:52.425Z,100426.44
2022-12-11T20:09:24.492Z,100443.25
2022-12-11T20:11:56.038Z,100430.03
2022-12-11T20:14:27.431Z,100410.84
2022-12-11T20:17:12.108Z,100398.50
2022-12-11T20:19:44.161Z,100439.91
2022-12-11T20:22:15.743Z,100433.88
2022-12-11T20:24:47.373Z,100426.91
2022-12-11T20:27:19.101Z,100424.22
2022-12-11T20:29:50.712Z,100433.91
2022-12-11T20:32:22.343Z,100437.50
2022-12-11T20:34:57.818Z,100429.72
2022-12-11T20:37:29.432Z,100438.47
2022-12-11T20:40:01.392Z,100402.47
2022-12-11T20:42:33.789Z,100428.84
2022-12-11T20:45:05.812Z,100422.75
2022-12-11T20:47:37.133Z,100424.50
2022-12-11T20:50:10.960Z,100451.75
2022-12-11T20:52:42.532Z,100436.06
2022-12-11T20:55:14.612Z,100433.44
2022-12-11T20:57:46.108Z,100443.22
2022-12-11T21:00:17.777Z,100423.84
2022-12-11T21:02:51.951Z,100435.47
2022-12-11T21:05:23.349Z,100430.03
2022-12-11T21:07:55.006Z,100438.91
2022-12-11T21:10:26.296Z,100439.00
2022-12-11T21:12:57.592Z,100446.84
2022-12-11T21:15:29.038Z,100403.75
2022-12-11T21:18:00.414Z,100421.44
2022-12-11T21:20:32.085Z,100430.31
2022-12-11T21:23:03.783Z,100446.97
2022-12-11T21:25:37.865Z,100431.22
2022-12-11T21:28:09.233Z,100434.78
2022-12-11T21:30:41.141Z,100413.72
2022-12-11T21:33:12.540Z,100440.16
2022-12-11T21:35:43.963Z,100440.16
2022-12-11T21:38:15.252Z,100441.00
2022-12-11T21:40:46.512Z,100442.84
2022-12-11T21:43:17.854Z,100441.03
2022-12-11T21:46:01.103Z,100428.69
2022-12-11T21:48:33.233Z,100448.00
2022-12-11T21:51:16.190Z,100453.25
2022-12-11T21:53:47.889Z,100443.66
2022-12-11T21:56:21.358Z,100439.25
2022-12-11T21:58:54.788Z,100437.50
2022-12-11T22:01:31.267Z,100440.13
2022-12-11T22:04:03.443Z,100447.00
2022-12-11T22:06:35.439Z,100448.66
2022-12-11T22:09:06.712Z,100450.41
2022-12-11T22:11:38.170Z,100455.63
2022-12-11T22:14:13.437Z,100459.06
2022-12-11T22:16:45.641Z,100463.44
2022-12-11T22:19:16.979Z,100452.03
2022-12-11T22:21:48.238Z,100462.66
2022-12-11T22:24:19.508Z,100465.28
2022-12-11T22:26:50.789Z,100467.81
2022-12-11T22:29:22.084Z,100469.50
2022-12-11T22:31:54.417Z,100465.16
2022-12-11T22:34:25.708Z,100452.91
2022-12-11T22:36:57.059Z,100444.16
2022-12-11T22:39:28.384Z,100466.03
2022-12-11T22:41:59.645Z,100459.94
2022-12-11T22:44:30.903Z,100455.69
2022-12-11T22:47:02.292Z,100459.16
2022-12-11T22:49:33.553Z,100445.94
2022-12-11T22:52:04.961Z,100448.72
2022-12-11T22:54:40.334Z,100433.81
2022-12-11T22:57:11.733Z,100428.59
2022-12-11T22:59:42.998Z,100452.34
2022-12-11T23:02:14.903Z,100445.44
2022-12-11T23:04:46.264Z,100445.38
2022-12-11T23:07:17.533Z,100447.97
2022-12-11T23:09:48.796Z,100447.06
2022-12-11T23:12:20.124Z,100447.03
2022-12-11T23:14:51.454Z,100447.84
2022-12-11T23:17:22.940Z,100450.41
2022-12-11T23:19:54.421Z,100445.06
2022-12-11T23:22:25.894Z,100445.91
2022-12-11T23:24:57.259Z,100439.81
2022-12-11T23:27:28.910Z,100449.38
2022-12-11T23:30:00.205Z,100441.47
2022-12-11T23:32:31.576Z,100455.56
2022-12-11T23:35:02.996Z,100450.41
2022-12-11T23:37:34.325Z,100454.78
2022-12-11T23:40:06.230Z,100433.63
2022-12-11T23:42:37.495Z,100452.16
2022-12-11T23:45:09.108Z,100440.84
2022-12-11T23:47:40.394Z,100438.09
2022-12-11T23:50:11.672Z,100453.13
2022-12-11T23:52:42.939Z,100434.66
2022-12-11T23:55:14.891Z,100455.69
2022-12-11T23:57:46.282Z,100457.38
